createdAt,value
2016-12-08T00:00:18.859Z,0
2016-12-08T00:10:33.594Z,0
2016-12-08T00:20:47.233Z,0
2016-12-08T00:31:02.137Z,0
2016-12-08T00:41:17.173Z,0
2016-12-08T00:51:30.768Z,0
2016-12-08T01:01:45.354Z,0
2016-12-08T01:11:58.691Z,0
2016-12-08T01:22:12.216Z,0
2016-12-08T01:32:26.142Z,0
2016-12-08T01:42:39.099Z,0
2016-12-08T01:52:54.104Z,0
2016-12-08T02:03:08.280Z,0
2016-12-08T02:13:21.880Z,0
2016-12-08T02:23:36.430Z,0
2016-12-08T02:33:51.101Z,0
2016-12-08T02:44:04.723Z,0
2016-12-08T02:54:19.144Z,0
2016-12-08T03:04:32.475Z,0
2016-12-08T03:14:45.880Z,0
2016-12-08T03:24:59.539Z,0
2016-12-08T03:35:14.157Z,0
2016-12-08T03:45:28.963Z,0
2016-12-08T03:55:42.914Z,0
2016-12-08T04:05:58.058Z,0
2016-12-08T04:16:12.225Z,0
2016-12-08T04:26:26.546Z,0
2016-12-08T04:36:40.504Z,0
2016-12-08T04:46:54.374Z,0
2016-12-08T04:57:08.281Z,0
2016-12-08T05:07:22.563Z,0
2016-12-08T05:17:37.555Z,0
2016-12-08T05:27:52.374Z,0
2016-12-08T05:38:07.406Z,0
2016-12-08T05:48:21.795Z,0
2016-12-08T05:58:36.733Z,0
2016-12-08T06:08:50.157Z,0
2016-12-08T06:19:04.906Z,0
2016-12-08T06:29:18.903Z,0
2016-12-08T06:39:31.917Z,0
2016-12-08T06:49:45.089Z,0
2016-12-08T06:59:58.521Z,0
2016-12-08T07:10:12.201Z,0
2016-12-08T07:20:27.180Z,5
2016-12-08T07:30:41.242Z,20
2016-12-08T07:40:54.496Z,40
2016-12-08T07:51:08.341Z,70
2016-12-08T08:01:22.541Z,95
2016-12-08T08:11:37.041Z,110
2016-12-08T08:21:51.479Z,125
2016-12-08T08:32:05.904Z,190
2016-12-08T08:42:19.784Z,190
2016-12-08T08:52:33.370Z,225
2016-12-08T09:02:47.426Z,235
2016-12-08T09:13:02.206Z,315
2016-12-08T09:23:16.592Z,270
2016-12-08T09:33:30.356Z,205
2016-12-08T09:43:44.152Z,215
2016-12-08T09:53:57.847Z,260
2016-12-08T10:04:12.149Z,295
2016-12-08T10:14:26.946Z,310
2016-12-08T10:24:40.945Z,295
2016-12-08T10:34:55.543Z,300
2016-12-08T10:45:08.726Z,285
2016-12-08T10:55:22.635Z,310
2016-12-08T11:05:36.824Z,305
2016-12-08T11:15:50.343Z,315
2016-12-08T11:26:03.523Z,270
2016-12-08T11:36:18.215Z,290
2016-12-08T11:46:31.657Z,340
2016-12-08T11:56:44.810Z,355
2016-12-08T12:06:59.512Z,315
2016-12-08T12:17:13.683Z,310
2016-12-08T12:37:41.419Z,255
2016-12-08T12:47:54.958Z,260
2016-12-08T12:58:09.952Z,280
2016-12-08T13:08:25.123Z,265
2016-12-08T13:18:40.298Z,240
2016-12-08T13:28:54.294Z,215
2016-12-08T13:39:07.385Z,205
2016-12-08T13:49:22.462Z,170
2016-12-08T13:59:37.450Z,125
2016-12-08T14:09:50.783Z,80
2016-12-08T14:20:05.882Z,55
2016-12-08T14:30:20.185Z,40
2016-12-08T14:40:34.638Z,40
2016-12-08T14:50:49.609Z,35
2016-12-08T15:01:03.831Z,25
2016-12-08T15:11:17.919Z,20
2016-12-08T15:21:31.150Z,10
2016-12-08T15:31:44.933Z,5
2016-12-08T15:41:59.924Z,0
2016-12-08T15:52:13.156Z,0
2016-12-08T16:02:27.786Z,0
2016-12-08T16:12:41.132Z,0
2016-12-08T16:22:55.495Z,0
2016-12-08T16:33:08.871Z,0
2016-12-08T16:43:23.436Z,0
2016-12-08T16:53:37.234Z,0
2016-12-08T17:03:51.432Z,0
2016-12-08T17:14:04.726Z,0
2016-12-08T17:24:17.791Z,0
2016-12-08T17:34:31.744Z,0
2016-12-08T17:44:46.957Z,0
2016-12-08T17:55:01.204Z,0
2016-12-08T18:05:15.596Z,0
2016-12-08T18:15:29.973Z,0
2016-12-08T18:25:44.879Z,0
2016-12-08T18:35:58.490Z,0
2016-12-08T18:46:12.022Z,0
2016-12-08T18:56:25.299Z,0
2016-12-08T19:06:40.057Z,0
2016-12-08T19:16:54.588Z,0
2016-12-08T19:27:08.186Z,0
2016-12-08T19:37:22.496Z,0
2016-12-08T19:47:35.953Z,0
2016-12-08T19:57:50.023Z,0
2016-12-08T20:08:04.424Z,0
2016-12-08T20:28:31.362Z,0
2016-12-08T20:38:46.464Z,0
2016-12-08T20:48:59.633Z,0
2016-12-08T20:59:13.204Z,0
2016-12-08T21:09:26.616Z,0
2016-12-08T21:19:40.433Z,0
2016-12-08T21:29:53.936Z,0
2016-12-08T21:40:08.877Z,0
2016-12-08T21:50:23.583Z,0
2016-12-08T22:00:37.937Z,0
2016-12-08T22:10:52.809Z,0
2016-12-08T22:21:06.358Z,0
2016-12-08T22:31:19.739Z,0
2016-12-08T22:41:33.697Z,0
2016-12-08T22:51:47.472Z,0
2016-12-08T23:02:01.068Z,0
2016-12-08T23:12:14.569Z,0
2016-12-08T23:22:28.324Z,0
2016-12-08T23:32:42.391Z,0
2016-12-08T23:42:56.864Z,0
2016-12-08T23:53:10.633Z,0
